Charter Quote
Worldwide +1-877-727-2538 Call
Select Language Lang
SAFETY RELIABILITY EXPERIENCE

Private Jet Charter Services - Xinzheng (ZHCC)

Paramount Business Jets offers private jet charter flights and luxury airliner charters to and from Xinzheng.

AIRPORT INFORMATION
ICAOZHCC
IATACGO
LOCATIONZhengzhou, China
FACILITY TYPEAIRPORT

At Paramount Business Jets you can hire chartered private jets to and from Xinzheng with as little as 4 hours of notice. All flights booked via Paramount Business Jets are operated by certified direct air carriers that meet and exceed the FAA part 135 and 121 protocol or a foreign equivalent safety authority. Furthermore, Paramount Business Jets subscribes to ARGUS for their third party safety checks of operators, aircraft, and crews prior each and every flight to and from Xinzheng and worldwide.

  • Quote a trip using Xinzheng or call us 24/7 - 365 days a year at +1-877-727-2538.
Questions? Call +1-877-727-2538

METAR Weather Data at Xinzheng, ZHCC, CGO

STATIONZHCC
OBSERVEDTue Jul 16, 04:00 UTC
NOWTue Jul 16, 04:33 UTC
AGE33 min ago
WINDESE at 9 mph
VISIBILITYgreater than 7 miles
CLOUDSclear skies
TEMP90°F (32°C)
DEWPT64°F (18°C)
HUMIDITY43%
HEAT INDEX92°F (33°C)
BAROMETER1007 hPa (29.74 in Hg)
METARZHCC 160400Z 12004MPS 090V160 CAVOK 32/18 Q1007 NOSIG

Call us on +1-877-727-2538 (24 Hours) to Hire a Private Jet or Get a Quick Quote.

Find Airports Near any Location

Processing
...